Terminal Aerodrome Forecast
Issued by NWS

Home | Current Version | Previous Version | Text Only | Print | Product List | Glossary On
Versions: 1 2 3 4 5 6 7 8 9 10 11 12 13 14 15 16 17 18 19 20 21
000
FTUS43 KGRB 290300 AAA
TAFCWA
TAF AMD
KCWA 290344Z 2904/2924 11005KT P6SM SCT015 OVC050
      TEMPO 2904/2906 4SM -PLSN OVC015
     FM290600 13005KT 3SM BR BKN012 OVC090
      TEMPO 2906/2908 -FZDZ
     FM291600 17006KT 5SM HZ BKN015
     FM292000 21007KT P6SM SCT020
      AMD LTD TO CLD VIS AND WIND TIL 291100=

USA.gov is the U.S. government's official web portal to all federal, state and local government web resources and services.